sensor_id;sensor_type;location;lat;lon;timestamp;pressure;altitude;pressure_sealevel;temperature;humidity
79203;BME280;68630;42.748;23.278;2024-03-23T00:52:18;95582.24;;;3.05;62.38
79203;BME280;68630;42.748;23.278;2024-03-23T00:54:46;95582.55;;;3.07;62.08
79203;BME280;68630;42.748;23.278;2024-03-23T00:57:15;95577.66;;;3.08;62.33
79203;BME280;68630;42.748;23.278;2024-03-23T00:59:43;95577.73;;;3.07;63.05
79203;BME280;68630;42.748;23.278;2024-03-23T01:02:10;95571.44;;;3.02;63.70
79203;BME280;68630;42.748;23.278;2024-03-23T01:04:38;95574.05;;;2.77;64.57
79203;BME280;68630;42.748;23.278;2024-03-23T01:07:05;95579.88;;;2.91;63.86
79203;BME280;68630;42.748;23.278;2024-03-23T01:09:33;95579.28;;;2.86;63.82
79203;BME280;68630;42.748;23.278;2024-03-23T01:12:00;95574.73;;;2.81;63.44
79203;BME280;68630;42.748;23.278;2024-03-23T01:14:28;95568.06;;;2.33;65.32
79203;BME280;68630;42.748;23.278;2024-03-23T01:16:55;95562.22;;;2.53;64.72
79203;BME280;68630;42.748;23.278;2024-03-23T01:19:23;95562.52;;;2.64;64.26
79203;BME280;68630;42.748;23.278;2024-03-23T01:21:51;95566.95;;;2.71;64.16
79203;BME280;68630;42.748;23.278;2024-03-23T01:24:18;95579.86;;;2.75;64.01
79203;BME280;68630;42.748;23.278;2024-03-23T01:26:46;95576.16;;;2.79;63.89
79203;BME280;68630;42.748;23.278;2024-03-23T01:29:16;95512.11;;;2.40;63.81
79203;BME280;68630;42.748;23.278;2024-03-23T01:31:44;95577.52;;;2.87;63.74
79203;BME280;68630;42.748;23.278;2024-03-23T01:34:13;95569.68;;;2.94;63.46
79203;BME280;68630;42.748;23.278;2024-03-23T01:36:40;95574.02;;;2.86;63.73
79203;BME280;68630;42.748;23.278;2024-03-23T01:39:09;95571.99;;;2.91;63.47
79203;BME280;68630;42.748;23.278;2024-03-23T01:41:37;95574.94;;;2.94;63.34
79203;BME280;68630;42.748;23.278;2024-03-23T01:44:06;95575.86;;;2.93;63.41
79203;BME280;68630;42.748;23.278;2024-03-23T01:46:36;95521.22;;;2.66;63.27
79203;BME280;68630;42.748;23.278;2024-03-23T01:49:05;95565.94;;;2.98;63.19
79203;BME280;68630;42.748;23.278;2024-03-23T01:51:33;95565.78;;;3.01;63.07
79203;BME280;68630;42.748;23.278;2024-03-23T01:54:02;95558.05;;;2.98;63.13
79203;BME280;68630;42.748;23.278;2024-03-23T01:56:33;95567.13;;;2.92;63.17
79203;BME280;68630;42.748;23.278;2024-03-23T01:59:06;95566.58;;;2.94;63.26
79203;BME280;68630;42.748;23.278;2024-03-23T02:01:35;95564.82;;;2.86;63.32
79203;BME280;68630;42.748;23.278;2024-03-23T02:04:03;95571.61;;;2.74;63.13
79203;BME280;68630;42.748;23.278;2024-03-23T02:06:31;95562.59;;;2.62;63.13
79203;BME280;68630;42.748;23.278;2024-03-23T02:08:59;95564.73;;;2.38;63.75
79203;BME280;68630;42.748;23.278;2024-03-23T02:11:27;95573.37;;;2.40;63.67
79203;BME280;68630;42.748;23.278;2024-03-23T02:13:54;95569.62;;;2.20;63.19
79203;BME280;68630;42.748;23.278;2024-03-23T02:16:22;95563.19;;;2.25;62.66
79203;BME280;68630;42.748;23.278;2024-03-23T02:18:50;95562.53;;;1.87;63.75
79203;BME280;68630;42.748;23.278;2024-03-23T02:21:17;95569.16;;;1.85;63.99
79203;BME280;68630;42.748;23.278;2024-03-23T02:23:45;95576.02;;;1.88;64.45
79203;BME280;68630;42.748;23.278;2024-03-23T02:26:12;95578.43;;;1.93;64.62
79203;BME280;68630;42.748;23.278;2024-03-23T02:28:41;95579.66;;;1.94;64.60
79203;BME280;68630;42.748;23.278;2024-03-23T02:31:09;95577.66;;;1.91;64.53
79203;BME280;68630;42.748;23.278;2024-03-23T02:33:38;95578.97;;;1.82;64.19
79203;BME280;68630;42.748;23.278;2024-03-23T02:36:05;95577.95;;;1.67;64.33
79203;BME280;68630;42.748;23.278;2024-03-23T02:38:33;95571.44;;;1.48;64.83
79203;BME280;68630;42.748;23.278;2024-03-23T02:41:05;95573.05;;;1.50;64.10
79203;BME280;68630;42.748;23.278;2024-03-23T02:43:33;95573.97;;;1.41;64.41
79203;BME280;68630;42.748;23.278;2024-03-23T02:46:00;95576.15;;;1.22;64.46
79203;BME280;68630;42.748;23.278;2024-03-23T02:48:28;95571.81;;;1.21;64.72
79203;BME280;68630;42.748;23.278;2024-03-23T02:50:55;95576.47;;;1.06;65.12
79203;BME280;68630;42.748;23.278;2024-03-23T02:53:23;95576.61;;;1.03;65.41
79203;BME280;68630;42.748;23.278;2024-03-23T02:55:51;95573.14;;;1.02;65.64
79203;BME280;68630;42.748;23.278;2024-03-23T02:58:18;95577.85;;;0.85;65.86
79203;BME280;68630;42.748;23.278;2024-03-23T03:00:47;95577.82;;;0.96;65.75
79203;BME280;68630;42.748;23.278;2024-03-23T03:03:15;95571.09;;;0.90;65.87
79203;BME280;68630;42.748;23.278;2024-03-23T03:05:42;95565.78;;;0.91;66.14
79203;BME280;68630;42.748;23.278;2024-03-23T03:08:10;95562.77;;;0.90;65.99
79203;BME280;68630;42.748;23.278;2024-03-23T03:10:38;95569.62;;;0.84;66.23
79203;BME280;68630;42.748;23.278;2024-03-23T03:13:05;95569.38;;;0.89;66.10
79203;BME280;68630;42.748;23.278;2024-03-23T03:15:33;95565.38;;;0.90;66.48
79203;BME280;68630;42.748;23.278;2024-03-23T03:18:00;95574.56;;;0.90;66.53
79203;BME280;68630;42.748;23.278;2024-03-23T03:20:28;95577.05;;;0.93;66.35
79203;BME280;68630;42.748;23.278;2024-03-23T03:22:56;95572.44;;;0.99;66.19
79203;BME280;68630;42.748;23.278;2024-03-23T03:25:24;95580.41;;;0.87;66.64
79203;BME280;68630;42.748;23.278;2024-03-23T03:27:52;95581.41;;;0.84;67.01
79203;BME280;68630;42.748;23.278;2024-03-23T03:30:19;95575.06;;;0.99;66.44
79203;BME280;68630;42.748;23.278;2024-03-23T03:32:47;95577.48;;;0.84;66.74
79203;BME280;68630;42.748;23.278;2024-03-23T03:35:14;95574.70;;;0.87;66.87
79203;BME280;68630;42.748;23.278;2024-03-23T03:37:42;95572.23;;;0.84;66.74
79203;BME280;68630;42.748;23.278;2024-03-23T03:40:10;95569.67;;;0.64;67.25
79203;BME280;68630;42.748;23.278;2024-03-23T03:42:37;95570.36;;;0.78;66.66
79203;BME280;68630;42.748;23.278;2024-03-23T03:45:05;95575.59;;;0.78;66.47
79203;BME280;68630;42.748;23.278;2024-03-23T03:47:33;95574.84;;;0.65;66.56
79203;BME280;68630;42.748;23.278;2024-03-23T03:50:01;95575.63;;;0.67;65.91
79203;BME280;68630;42.748;23.278;2024-03-23T03:52:28;95577.17;;;0.71;66.44
79203;BME280;68630;42.748;23.278;2024-03-23T03:55:01;95535.13;;;0.45;66.13
79203;BME280;68630;42.748;23.278;2024-03-23T03:57:26;95575.52;;;0.60;66.60
79203;BME280;68630;42.748;23.278;2024-03-23T03:59:54;95576.59;;;0.65;66.63
79203;BME280;68630;42.748;23.278;2024-03-23T04:02:21;95575.22;;;0.66;66.60
79203;BME280;68630;42.748;23.278;2024-03-23T04:04:49;95580.17;;;0.53;66.56
79203;BME280;68630;42.748;23.278;2024-03-23T04:07:19;95576.44;;;0.49;66.90
79203;BME280;68630;42.748;23.278;2024-03-23T04:09:46;95581.42;;;0.55;66.63
79203;BME280;68630;42.748;23.278;2024-03-23T04:12:14;95573.94;;;0.56;66.72
79203;BME280;68630;42.748;23.278;2024-03-23T04:14:43;95587.75;;;0.60;66.90
79203;BME280;68630;42.748;23.278;2024-03-23T04:17:10;95590.47;;;0.67;66.83
79203;BME280;68630;42.748;23.278;2024-03-23T04:19:40;95590.14;;;0.74;67.04
79203;BME280;68630;42.748;23.278;2024-03-23T04:25:07;95591.23;;;0.89;66.98
79203;BME280;68630;42.748;23.278;2024-03-23T04:27:34;95589.65;;;0.85;67.50
79203;BME280;68630;42.748;23.278;2024-03-23T04:30:03;95590.16;;;0.93;66.98
79203;BME280;68630;42.748;23.278;2024-03-23T04:32:32;95588.37;;;0.94;67.07
79203;BME280;68630;42.748;23.278;2024-03-23T04:34:59;95582.32;;;1.02;66.39
79203;BME280;68630;42.748;23.278;2024-03-23T04:37:27;95585.70;;;1.23;65.78
79203;BME280;68630;42.748;23.278;2024-03-23T04:39:55;95586.63;;;1.50;65.17
79203;BME280;68630;42.748;23.278;2024-03-23T04:42:22;95587.77;;;1.98;63.24
79203;BME280;68630;42.748;23.278;2024-03-23T04:44:50;95586.02;;;2.58;61.39
79203;BME280;68630;42.748;23.278;2024-03-23T04:47:22;95594.99;;;3.12;59.77
79203;BME280;68630;42.748;23.278;2024-03-23T04:49:49;95590.18;;;3.75;57.83
79203;BME280;68630;42.748;23.278;2024-03-23T04:52:19;95591.98;;;4.43;55.94
79203;BME280;68630;42.748;23.278;2024-03-23T04:54:46;95595.42;;;5.02;54.22
79203;BME280;68630;42.748;23.278;2024-03-23T04:57:14;95599.12;;;5.49;52.66
79203;BME280;68630;42.748;23.278;2024-03-23T04:59:43;95598.44;;;4.82;54.02
79203;BME280;68630;42.748;23.278;2024-03-23T05:02:11;95598.73;;;4.33;55.36
79203;BME280;68630;42.748;23.278;2024-03-23T05:04:38;95592.52;;;3.96;56.56
79203;BME280;68630;42.748;23.278;2024-03-23T05:07:07;95603.39;;;3.51;58.01
79203;BME280;68630;42.748;23.278;2024-03-23T05:09:34;95597.87;;;3.24;58.83
79203;BME280;68630;42.748;23.278;2024-03-23T05:12:02;95598.98;;;3.19;58.70
79203;BME280;68630;42.748;23.278;2024-03-23T05:14:30;95593.08;;;3.23;58.76
79203;BME280;68630;42.748;23.278;2024-03-23T05:16:58;95593.52;;;2.91;59.81
79203;BME280;68630;42.748;23.278;2024-03-23T05:19:25;95594.86;;;2.49;61.44
79203;BME280;68630;42.748;23.278;2024-03-23T05:21:53;95594.59;;;2.53;61.06
79203;BME280;68630;42.748;23.278;2024-03-23T05:24:20;95597.72;;;2.44;61.62
79203;BME280;68630;42.748;23.278;2024-03-23T05:26:48;95598.44;;;2.30;62.31
79203;BME280;68630;42.748;23.278;2024-03-23T05:29:16;95600.67;;;2.03;63.74
79203;BME280;68630;42.748;23.278;2024-03-23T05:31:43;95598.82;;;2.40;62.41
79203;BME280;68630;42.748;23.278;2024-03-23T05:34:11;95600.86;;;2.59;61.90
79203;BME280;68630;42.748;23.278;2024-03-23T05:36:40;95592.95;;;2.68;62.22
79203;BME280;68630;42.748;23.278;2024-03-23T05:39:08;95601.27;;;2.85;61.34
79203;BME280;68630;42.748;23.278;2024-03-23T05:41:35;95603.84;;;3.03;61.41
79203;BME280;68630;42.748;23.278;2024-03-23T05:44:03;95603.05;;;3.09;61.53
79203;BME280;68630;42.748;23.278;2024-03-23T05:46:30;95598.61;;;3.34;60.46
79203;BME280;68630;42.748;23.278;2024-03-23T05:49:00;95592.14;;;4.33;58.22
79203;BME280;68630;42.748;23.278;2024-03-23T05:51:29;95587.35;;;6.87;52.15
79203;BME280;68630;42.748;23.278;2024-03-23T05:53:56;95588.53;;;9.74;45.42
79203;BME280;68630;42.748;23.278;2024-03-23T05:56:24;95588.30;;;11.82;41.22
79203;BME280;68630;42.748;23.278;2024-03-23T05:58:52;95577.57;;;13.62;37.17
79203;BME280;68630;42.748;23.278;2024-03-23T06:01:20;95581.01;;;15.04;34.15
79203;BME280;68630;42.748;23.278;2024-03-23T06:03:47;95574.81;;;16.82;31.53
79203;BME280;68630;42.748;23.278;2024-03-23T06:06:15;95580.95;;;16.29;30.58
79203;BME280;68630;42.748;23.278;2024-03-23T06:08:42;95584.06;;;15.69;31.92
79203;BME280;68630;42.748;23.278;2024-03-23T06:11:10;95576.14;;;16.57;30.88
79203;BME280;68630;42.748;23.278;2024-03-23T06:13:37;95574.66;;;16.96;30.25
79203;BME280;68630;42.748;23.278;2024-03-23T06:16:05;95579.52;;;18.79;27.95
79203;BME280;68630;42.748;23.278;2024-03-23T06:18:33;95579.79;;;18.42;27.91
79203;BME280;68630;42.748;23.278;2024-03-23T06:21:00;95572.73;;;19.78;26.65
79203;BME280;68630;42.748;23.278;2024-03-23T06:23:27;95570.63;;;21.37;24.71
79203;BME280;68630;42.748;23.278;2024-03-23T06:25:55;95575.30;;;20.42;25.48
79203;BME280;68630;42.748;23.278;2024-03-23T06:28:25;95579.05;;;20.78;25.15
79203;BME280;68630;42.748;23.278;2024-03-23T06:31:10;95575.19;;;21.37;24.80
79203;BME280;68630;42.748;23.278;2024-03-23T06:33:38;95571.84;;;20.63;25.32
79203;BME280;68630;42.748;23.278;2024-03-23T06:36:09;95576.95;;;20.58;25.30
79203;BME280;68630;42.748;23.278;2024-03-23T06:38:40;95571.67;;;20.24;25.57
79203;BME280;68630;42.748;23.278;2024-03-23T06:41:08;95572.25;;;20.05;25.87
79203;BME280;68630;42.748;23.278;2024-03-23T06:43:36;95573.33;;;19.36;26.87
79203;BME280;68630;42.748;23.278;2024-03-23T06:46:03;95563.52;;;20.13;26.16
79203;BME280;68630;42.748;23.278;2024-03-23T06:48:31;95563.36;;;21.83;24.18
79203;BME280;68630;42.748;23.278;2024-03-23T06:50:59;95560.28;;;22.79;23.08
79203;BME280;68630;42.748;23.278;2024-03-23T06:53:26;95562.71;;;23.78;22.40
79203;BME280;68630;42.748;23.278;2024-03-23T06:55:54;95556.92;;;23.28;22.83
79203;BME280;68630;42.748;23.278;2024-03-23T06:58:23;95561.26;;;22.27;23.44
79203;BME280;68630;42.748;23.278;2024-03-23T07:00:51;95565.83;;;21.78;24.13
79203;BME280;68630;42.748;23.278;2024-03-23T07:03:18;95560.70;;;21.23;24.81
79203;BME280;68630;42.748;23.278;2024-03-23T07:05:47;95559.34;;;21.90;23.81
79203;BME280;68630;42.748;23.278;2024-03-23T07:08:15;95555.16;;;22.73;23.55
79203;BME280;68630;42.748;23.278;2024-03-23T07:10:44;95560.38;;;23.19;23.51
79203;BME280;68630;42.748;23.278;2024-03-23T07:13:11;95554.61;;;23.58;22.68
79203;BME280;68630;42.748;23.278;2024-03-23T07:15:39;95550.39;;;24.47;21.59
79203;BME280;68630;42.748;23.278;2024-03-23T07:18:08;95544.20;;;24.27;22.06
79203;BME280;68630;42.748;23.278;2024-03-23T07:20:36;95545.34;;;24.90;21.25
79203;BME280;68630;42.748;23.278;2024-03-23T07:23:04;95544.34;;;25.41;21.07
79203;BME280;68630;42.748;23.278;2024-03-23T07:25:32;95529.92;;;26.03;20.10
79203;BME280;68630;42.748;23.278;2024-03-23T07:27:59;95539.05;;;25.05;20.69
79203;BME280;68630;42.748;23.278;2024-03-23T07:30:27;95538.80;;;23.71;22.82
79203;BME280;68630;42.748;23.278;2024-03-23T07:32:56;95538.80;;;23.71;22.82
79203;BME280;68630;42.748;23.278;2024-03-23T07:35:23;95534.97;;;24.57;21.55
79203;BME280;68630;42.748;23.278;2024-03-23T07:37:50;95535.09;;;24.01;22.13
79203;BME280;68630;42.748;23.278;2024-03-23T07:40:18;95528.53;;;23.24;22.88
79203;BME280;68630;42.748;23.278;2024-03-23T07:42:45;95537.13;;;24.12;21.75
79203;BME280;68630;42.748;23.278;2024-03-23T07:45:16;95532.63;;;25.40;20.75
79203;BME280;68630;42.748;23.278;2024-03-23T07:47:43;95533.10;;;24.51;22.84
79203;BME280;68630;42.748;23.278;2024-03-23T07:50:12;95523.20;;;25.11;21.38
79203;BME280;68630;42.748;23.278;2024-03-23T07:52:49;95519.92;;;26.24;20.10
79203;BME280;68630;42.748;23.278;2024-03-23T07:55:17;95517.75;;;28.21;18.57
79203;BME280;68630;42.748;23.278;2024-03-23T07:57:54;95515.99;;;28.03;18.47
79203;BME280;68630;42.748;23.278;2024-03-23T08:00:23;95516.77;;;27.54;18.71
79203;BME280;68630;42.748;23.278;2024-03-23T08:02:52;95516.02;;;28.29;18.35
79203;BME280;68630;42.748;23.278;2024-03-23T08:05:34;95507.96;;;26.25;20.10
79203;BME280;68630;42.748;23.278;2024-03-23T08:08:01;95508.00;;;25.29;21.15
79203;BME280;68630;42.748;23.278;2024-03-23T08:10:29;95506.63;;;24.88;21.54
79203;BME280;68630;42.748;23.278;2024-03-23T08:12:56;95506.08;;;25.45;20.81
79203;BME280;68630;42.748;23.278;2024-03-23T08:15:24;95505.75;;;26.34;20.01
79203;BME280;68630;42.748;23.278;2024-03-23T08:20:28;95496.79;;;27.89;18.67
79203;BME280;68630;42.748;23.278;2024-03-23T08:22:55;95498.72;;;28.98;18.16
79203;BME280;68630;42.748;23.278;2024-03-23T08:25:25;95499.61;;;27.68;18.55
79203;BME280;68630;42.748;23.278;2024-03-23T08:34:00;95494.68;;;27.22;19.83
79203;BME280;68630;42.748;23.278;2024-03-23T08:36:31;95485.65;;;28.57;18.56
79203;BME280;68630;42.748;23.278;2024-03-23T08:39:01;95483.98;;;30.09;17.24
79203;BME280;68630;42.748;23.278;2024-03-23T08:41:32;95482.89;;;27.31;19.37
79203;BME280;68630;42.748;23.278;2024-03-23T08:44:00;95485.73;;;24.04;23.67
79203;BME280;68630;42.748;23.278;2024-03-23T08:46:28;95477.19;;;25.53;23.09
79203;BME280;68630;42.748;23.278;2024-03-23T08:49:01;95474.59;;;28.26;18.96
79203;BME280;68630;42.748;23.278;2024-03-23T08:51:29;95465.22;;;30.42;17.45
79203;BME280;68630;42.748;23.278;2024-03-23T08:53:59;95467.77;;;31.70;16.31
79203;BME280;68630;42.748;23.278;2024-03-23T08:56:26;95455.70;;;28.99;18.54
79203;BME280;68630;42.748;23.278;2024-03-23T08:58:53;95455.72;;;29.16;18.42
79203;BME280;68630;42.748;23.278;2024-03-23T09:01:28;95398.34;;;26.91;19.34
79203;BME280;68630;42.748;23.278;2024-03-23T09:06:31;95443.03;;;29.26;18.41
79203;BME280;68630;42.748;23.278;2024-03-23T09:09:11;95444.91;;;28.17;18.83
79203;BME280;68630;42.748;23.278;2024-03-23T09:11:44;95439.64;;;28.01;19.05
79203;BME280;68630;42.748;23.278;2024-03-23T09:14:16;95426.31;;;25.84;21.67
79203;BME280;68630;42.748;23.278;2024-03-23T09:16:43;95427.29;;;26.08;20.96
79203;BME280;68630;42.748;23.278;2024-03-23T09:19:11;95427.73;;;25.50;21.34
79203;BME280;68630;42.748;23.278;2024-03-23T09:21:38;95421.16;;;25.76;22.43
79203;BME280;68630;42.748;23.278;2024-03-23T09:24:09;95419.58;;;27.46;20.63
79203;BME280;68630;42.748;23.278;2024-03-23T09:26:42;95411.84;;;28.36;19.55
79203;BME280;68630;42.748;23.278;2024-03-23T09:29:22;95412.79;;;28.70;17.93
79203;BME280;68630;42.748;23.278;2024-03-23T09:37:27;95394.53;;;28.93;18.04
79203;BME280;68630;42.748;23.278;2024-03-23T09:42:32;95381.59;;;29.08;18.83
79203;BME280;68630;42.748;23.278;2024-03-23T09:45:11;95377.16;;;30.02;17.40
79203;BME280;68630;42.748;23.278;2024-03-23T09:47:57;95379.84;;;30.73;16.28
79203;BME280;68630;42.748;23.278;2024-03-23T09:50:14;95374.26;;;27.62;19.32
79203;BME280;68630;42.748;23.278;2024-03-23T09:52:48;95367.64;;;27.10;20.11
79203;BME280;68630;42.748;23.278;2024-03-23T09:55:16;95364.63;;;27.86;18.95
79203;BME280;68630;42.748;23.278;2024-03-23T09:57:50;95362.25;;;26.57;19.86
79203;BME280;68630;42.748;23.278;2024-03-23T10:08:41;95334.13;;;31.90;15.39
79203;BME280;68630;42.748;23.278;2024-03-23T10:11:16;95337.93;;;31.79;16.30
79203;BME280;68630;42.748;23.278;2024-03-23T10:13:48;95336.36;;;31.43;15.55
79203;BME280;68630;42.748;23.278;2024-03-23T10:16:28;95327.21;;;31.82;15.25
79203;BME280;68630;42.748;23.278;2024-03-23T10:19:34;95326.05;;;30.83;16.26
79203;BME280;68630;42.748;23.278;2024-03-23T10:22:02;95325.34;;;30.60;15.88
79203;BME280;68630;42.748;23.278;2024-03-23T10:24:30;95323.04;;;32.63;15.02
79203;BME280;68630;42.748;23.278;2024-03-23T10:26:57;95309.75;;;32.29;14.44
79203;BME280;68630;42.748;23.278;2024-03-23T10:29:25;95304.86;;;32.75;14.71
79203;BME280;68630;42.748;23.278;2024-03-23T10:43:49;95278.06;;;25.67;21.93
79203;BME280;68630;42.748;23.278;2024-03-23T10:46:19;95275.89;;;23.89;21.98
79203;BME280;68630;42.748;23.278;2024-03-23T10:48:46;95265.01;;;22.98;22.96
79203;BME280;68630;42.748;23.278;2024-03-23T10:51:15;95258.55;;;22.03;24.53
79203;BME280;68630;42.748;23.278;2024-03-23T10:53:47;95249.07;;;22.10;25.13
79203;BME280;68630;42.748;23.278;2024-03-23T10:56:26;95250.61;;;21.31;26.35
79203;BME280;68630;42.748;23.278;2024-03-23T10:59:04;95249.22;;;20.69;26.21
79203;BME280;68630;42.748;23.278;2024-03-23T11:01:33;95243.55;;;19.36;27.82
79203;BME280;68630;42.748;23.278;2024-03-23T11:10:33;95217.94;;;19.47;25.24
79203;BME280;68630;42.748;23.278;2024-03-23T11:13:26;95206.67;;;19.33;27.47
79203;BME280;68630;42.748;23.278;2024-03-23T11:19:36;95199.02;;;19.36;27.81
79203;BME280;68630;42.748;23.278;2024-03-23T11:22:07;95191.87;;;19.72;28.68
79203;BME280;68630;42.748;23.278;2024-03-23T11:24:40;95189.07;;;19.48;27.11
79203;BME280;68630;42.748;23.278;2024-03-23T11:27:21;95195.22;;;18.98;27.37
79203;BME280;68630;42.748;23.278;2024-03-23T11:30:16;95181.61;;;19.06;25.69
79203;BME280;68630;42.748;23.278;2024-03-23T11:32:44;95175.89;;;19.38;25.06
79203;BME280;68630;42.748;23.278;2024-03-23T11:35:30;95115.97;;;19.32;25.69
79203;BME280;68630;42.748;23.278;2024-03-23T11:38:07;95174.69;;;19.40;27.06
79203;BME280;68630;42.748;23.278;2024-03-23T11:44:15;95150.09;;;19.18;27.03
79203;BME280;68630;42.748;23.278;2024-03-23T11:46:34;95144.20;;;19.57;25.52
79203;BME280;68630;42.748;23.278;2024-03-23T11:49:03;95139.93;;;19.80;24.69
79203;BME280;68630;42.748;23.278;2024-03-23T11:51:36;95132.05;;;19.96;24.86
79203;BME280;68630;42.748;23.278;2024-03-23T11:54:12;95132.28;;;19.45;27.55
79203;BME280;68630;42.748;23.278;2024-03-23T11:57:14;95119.81;;;19.22;28.04
79203;BME280;68630;42.748;23.278;2024-03-23T11:59:29;95113.91;;;19.34;25.04
79203;BME280;68630;42.748;23.278;2024-03-23T12:01:55;95110.77;;;19.08;25.75
79203;BME280;68630;42.748;23.278;2024-03-23T12:04:28;95104.67;;;19.21;25.65
79203;BME280;68630;42.748;23.278;2024-03-23T12:07:31;95105.62;;;18.45;26.85
79203;BME280;68630;42.748;23.278;2024-03-23T12:10:09;95100.20;;;18.81;25.17
79203;BME280;68630;42.748;23.278;2024-03-23T12:12:38;95088.24;;;18.84;25.12
79203;BME280;68630;42.748;23.278;2024-03-23T12:15:06;95087.83;;;19.30;24.40
79203;BME280;68630;42.748;23.278;2024-03-23T12:17:36;95084.05;;;19.14;23.25
79203;BME280;68630;42.748;23.278;2024-03-23T12:20:12;95075.19;;;19.20;23.78
79203;BME280;68630;42.748;23.278;2024-03-23T12:22:39;95071.42;;;18.93;23.80
79203;BME280;68630;42.748;23.278;2024-03-23T12:25:07;95074.94;;;18.93;24.58
79203;BME280;68630;42.748;23.278;2024-03-23T12:27:45;95065.67;;;18.81;25.73
79203;BME280;68630;42.748;23.278;2024-03-23T12:30:16;95065.52;;;18.82;26.12
79203;BME280;68630;42.748;23.278;2024-03-23T12:32:52;95063.47;;;18.37;25.67
79203;BME280;68630;42.748;23.278;2024-03-23T12:35:52;95060.22;;;18.52;26.22
79203;BME280;68630;42.748;23.278;2024-03-23T12:38:21;95054.66;;;18.86;24.91
79203;BME280;68630;42.748;23.278;2024-03-23T12:40:51;95045.41;;;18.85;24.89
79203;BME280;68630;42.748;23.278;2024-03-23T12:43:19;95039.17;;;19.06;24.63
79203;BME280;68630;42.748;23.278;2024-03-23T12:45:56;95032.30;;;19.14;25.50
79203;BME280;68630;42.748;23.278;2024-03-23T12:52:06;95031.98;;;18.92;22.95
79203;BME280;68630;42.748;23.278;2024-03-23T12:54:39;95021.64;;;18.74;23.96
79203;BME280;68630;42.748;23.278;2024-03-23T12:57:06;95013.27;;;18.83;22.89
79203;BME280;68630;42.748;23.278;2024-03-23T12:59:39;95021.75;;;18.76;24.72
79203;BME280;68630;42.748;23.278;2024-03-23T13:05:36;95003.97;;;18.28;22.96
79203;BME280;68630;42.748;23.278;2024-03-23T13:08:29;95009.57;;;18.59;22.05
79203;BME280;68630;42.748;23.278;2024-03-23T13:11:06;95010.57;;;17.59;23.48
79203;BME280;68630;42.748;23.278;2024-03-23T13:13:58;94998.45;;;17.89;23.18
79203;BME280;68630;42.748;23.278;2024-03-23T13:16:30;94997.23;;;17.76;23.41
79203;BME280;68630;42.748;23.278;2024-03-23T13:19:22;94994.94;;;17.99;23.61
79203;BME280;68630;42.748;23.278;2024-03-23T13:24:54;94983.39;;;18.31;22.81
79203;BME280;68630;42.748;23.278;2024-03-23T13:27:29;94984.48;;;18.15;23.35
79203;BME280;68630;42.748;23.278;2024-03-23T13:29:58;94969.06;;;18.20;21.86
79203;BME280;68630;42.748;23.278;2024-03-23T13:35:33;94972.47;;;18.18;22.68
79203;BME280;68630;42.748;23.278;2024-03-23T13:38:06;94971.79;;;17.94;24.45
79203;BME280;68630;42.748;23.278;2024-03-23T13:40:36;94975.56;;;17.89;23.91
79203;BME280;68630;42.748;23.278;2024-03-23T13:43:06;94959.74;;;17.90;23.20
79203;BME280;68630;42.748;23.278;2024-03-23T13:45:33;94955.34;;;18.14;21.90
79203;BME280;68630;42.748;23.278;2024-03-23T13:48:03;94951.97;;;18.17;22.14
79203;BME280;68630;42.748;23.278;2024-03-23T13:50:30;94941.88;;;18.14;22.21
79203;BME280;68630;42.748;23.278;2024-03-23T13:52:58;94949.64;;;18.35;22.32
79203;BME280;68630;42.748;23.278;2024-03-23T13:55:28;94943.11;;;18.44;22.14
79203;BME280;68630;42.748;23.278;2024-03-23T13:58:11;94932.37;;;18.40;21.95
79203;BME280;68630;42.748;23.278;2024-03-23T14:00:40;94932.95;;;18.57;21.92
79203;BME280;68630;42.748;23.278;2024-03-23T14:03:12;94932.19;;;18.63;22.63
79203;BME280;68630;42.748;23.278;2024-03-23T14:05:49;94937.58;;;18.42;22.06
79203;BME280;68630;42.748;23.278;2024-03-23T14:08:20;94930.39;;;18.60;24.15
79203;BME280;68630;42.748;23.278;2024-03-23T14:14:09;94919.38;;;18.33;24.94
79203;BME280;68630;42.748;23.278;2024-03-23T14:20:05;94915.95;;;18.57;23.77
79203;BME280;68630;42.748;23.278;2024-03-23T14:22:38;94920.99;;;18.17;23.75
79203;BME280;68630;42.748;23.278;2024-03-23T14:25:07;94911.61;;;18.12;23.41
79203;BME280;68630;42.748;23.278;2024-03-23T14:27:53;94910.20;;;18.27;22.81
79203;BME280;68630;42.748;23.278;2024-03-23T14:30:23;94906.02;;;18.46;22.63
79203;BME280;68630;42.748;23.278;2024-03-23T14:36:20;94898.27;;;18.47;22.67
79203;BME280;68630;42.748;23.278;2024-03-23T14:39:14;94900.73;;;18.49;22.76
79203;BME280;68630;42.748;23.278;2024-03-23T14:41:42;94899.64;;;18.54;22.99
79203;BME280;68630;42.748;23.278;2024-03-23T14:44:10;94898.20;;;18.41;23.30
79203;BME280;68630;42.748;23.278;2024-03-23T14:46:57;94891.31;;;18.60;22.94
79203;BME280;68630;42.748;23.278;2024-03-23T14:49:37;94892.08;;;18.53;23.19
79203;BME280;68630;42.748;23.278;2024-03-23T14:52:11;94883.70;;;18.52;23.13
79203;BME280;68630;42.748;23.278;2024-03-23T14:54:38;94883.05;;;18.40;23.20
79203;BME280;68630;42.748;23.278;2024-03-23T15:03:36;94874.81;;;18.09;24.88
79203;BME280;68630;42.748;23.278;2024-03-23T15:06:06;94868.97;;;18.05;24.52
79203;BME280;68630;42.748;23.278;2024-03-23T15:20:22;94852.88;;;18.12;24.41
79203;BME280;68630;42.748;23.278;2024-03-23T15:25:42;94856.27;;;18.21;24.50
79203;BME280;68630;42.748;23.278;2024-03-23T15:28:11;94860.78;;;18.03;25.70
79203;BME280;68630;42.748;23.278;2024-03-23T15:30:41;94856.02;;;17.94;25.34
79203;BME280;68630;42.748;23.278;2024-03-23T15:33:10;94863.23;;;17.83;25.61
79203;BME280;68630;42.748;23.278;2024-03-23T15:35:38;94859.24;;;17.78;26.10
79203;BME280;68630;42.748;23.278;2024-03-23T15:38:07;94867.20;;;17.65;26.74
79203;BME280;68630;42.748;23.278;2024-03-23T15:40:36;94856.89;;;17.69;25.74
79203;BME280;68630;42.748;23.278;2024-03-23T15:43:06;94861.03;;;17.60;26.05